Time;durP1;ratioP1;P1;durP2;ratioP2;P2;SDS_P1;SDS_P2;PMS_P1;PMS_P2;Temp;Humidity;BMP_temperature;BMP_pressure;BME280_temperature;BME280_humidity;BME280_pressure;Samples;Min_cycle;Max_cycle;Signal;HPM_P1;HPM_P2
2021/09/07 00:00:38;;;;;;;22.80;12.35;;;;;;;14.26;70.86;101272.25;5012315;28;20053;-67
2021/09/07 00:03:03;;;;;;;23.42;13.23;;;;;;;14.24;71.49;101270.66;5009696;28;20072;-66
2021/09/07 00:05:28;;;;;;;30.38;13.55;;;;;;;14.19;71.25;101270.19;5012554;28;20447;-66
2021/09/07 00:07:54;;;;;;;28.50;13.85;;;;;;;14.14;71.29;101270.59;5011004;28;20026;-66
2021/09/07 00:10:20;;;;;;;26.88;13.18;;;;;;;14.05;71.31;101259.72;5011816;28;20607;-66
2021/09/07 00:12:45;;;;;;;23.10;13.65;;;;;;;14.04;71.56;101272.38;5018918;28;20462;-67
2021/09/07 00:15:13;;;;;;;23.65;13.80;;;;;;;14.00;71.70;101272.78;5031911;28;20033;-67
2021/09/07 00:17:39;;;;;;;27.38;13.07;;;;;;;13.96;72.00;101272.19;5031811;28;20052;-67
2021/09/07 00:20:07;;;;;;;21.25;12.32;;;;;;;13.82;72.19;101244.69;5025121;28;20073;-67
2021/09/07 00:22:33;;;;;;;24.45;12.63;;;;;;;13.91;72.33;101252.00;5011920;28;20091;-66
2021/09/07 00:24:59;;;;;;;25.42;13.15;;;;;;;13.94;72.65;101273.31;5012108;28;20422;-67
2021/09/07 00:27:24;;;;;;;22.33;12.00;;;;;;;13.93;72.59;101267.06;5011782;28;20034;-67
2021/09/07 00:29:50;;;;;;;23.17;12.13;;;;;;;13.87;72.76;101253.25;5012110;28;20156;-67
2021/09/07 00:32:15;;;;;;;20.10;11.63;;;;;;;13.86;72.58;101255.09;5011658;28;20026;-67
2021/09/07 00:34:41;;;;;;;24.35;12.80;;;;;;;13.77;72.53;101245.13;5012013;28;20455;-67
2021/09/07 00:37:06;;;;;;;25.13;11.82;;;;;;;13.80;72.95;101255.63;5011516;28;20402;-67
2021/09/07 00:39:31;;;;;;;24.30;12.55;;;;;;;13.81;73.07;101260.06;5011770;28;20121;-67
2021/09/07 00:41:57;;;;;;;21.15;12.13;;;;;;;13.76;73.20;101256.88;5011593;28;20553;-67
2021/09/07 00:44:24;;;;;;;19.33;11.70;;;;;;;13.82;73.39;101255.50;5011476;28;20018;-67
2021/09/07 00:46:51;;;;;;;24.88;12.32;;;;;;;13.81;73.25;101254.66;5011664;28;20022;-67
2021/09/07 00:49:17;;;;;;;20.75;12.20;;;;;;;13.78;72.92;101249.53;5011324;28;20037;-67
2021/09/07 00:51:45;;;;;;;20.58;11.40;;;;;;;13.71;72.72;101238.41;5011513;28;20045;-67
2021/09/07 00:54:11;;;;;;;24.95;11.60;;;;;;;13.68;72.92;101237.81;5013880;28;20471;-67
2021/09/07 00:56:38;;;;;;;21.55;11.85;;;;;;;13.71;72.92;101235.69;5009970;28;20064;-67
2021/09/07 00:59:06;;;;;;;21.85;11.75;;;;;;;13.70;72.71;101241.22;5010044;28;20076;-67
2021/09/07 01:01:32;;;;;;;23.67;12.25;;;;;;;13.69;72.62;101248.47;5011489;28;20071;-66
2021/09/07 01:03:58;;;;;;;21.48;10.88;;;;;;;13.63;72.52;101253.53;5011236;28;20474;-67
2021/09/07 01:06:23;;;;;;;22.60;11.98;;;;;;;13.56;72.96;101249.66;5013702;28;20045;-67
2021/09/07 01:08:49;;;;;;;22.10;11.88;;;;;;;13.56;72.82;101255.91;5030658;28;20037;-66
2021/09/07 01:11:18;;;;;;;27.73;12.60;;;;;;;13.47;72.70;101243.22;5030761;28;20394;-66
2021/09/07 01:13:43;;;;;;;23.13;11.95;;;;;;;13.47;72.46;101243.22;5021457;28;20026;-66
2021/09/07 01:16:09;;;;;;;23.15;11.27;;;;;;;13.50;73.00;101248.34;5010995;28;20037;-63
2021/09/07 01:18:34;;;;;;;21.17;11.25;;;;;;;13.44;72.68;101243.47;5011109;28;20038;-63
2021/09/07 01:21:00;;;;;;;22.00;10.57;;;;;;;13.47;73.40;101245.91;5009481;28;20038;-63
2021/09/07 01:23:26;;;;;;;22.75;10.95;;;;;;;13.46;73.68;101246.03;5010750;28;20026;-64
2021/09/07 01:25:52;;;;;;;17.05;10.27;;;;;;;13.40;73.43;101235.78;5011048;28;20387;-63
2021/09/07 01:28:18;;;;;;;20.35;11.10;;;;;;;13.36;74.13;101226.25;5010646;28;20033;-63
2021/09/07 01:30:44;;;;;;;24.60;11.25;;;;;;;13.42;73.79;101239.19;5010911;28;20467;-63
2021/09/07 01:33:11;;;;;;;18.20;11.10;;;;;;;13.43;73.54;101240.91;5010783;28;20061;-64
2021/09/07 01:35:39;;;;;;;20.90;11.32;;;;;;;13.40;74.02;101235.78;5010684;28;20058;-63
2021/09/07 01:38:05;;;;;;;19.92;10.77;;;;;;;13.37;73.03;101233.34;5010599;28;20102;-63
2021/09/07 01:40:30;;;;;;;20.85;11.05;;;;;;;13.33;72.53;101235.44;5010535;28;20022;-63
2021/09/07 01:42:56;;;;;;;17.85;10.82;;;;;;;13.31;71.63;101241.94;5010575;28;20439;-63
2021/09/07 01:45:21;;;;;;;20.33;10.73;;;;;;;13.24;71.98;101233.53;5010422;28;20459;-63
2021/09/07 01:47:50;;;;;;;22.15;11.85;;;;;;;13.21;73.01;101231.09;5010352;28;20030;-63
2021/09/07 01:50:16;;;;;;;21.48;10.95;;;;;;;13.25;73.60;101242.44;5010422;28;20416;-63
2021/09/07 01:52:42;;;;;;;18.70;11.63;;;;;;;13.22;73.98;101243.56;5010424;28;20061;-63
2021/09/07 01:55:08;;;;;;;23.15;12.52;;;;;;;13.14;73.73;101237.13;5024554;28;20067;-63
2021/09/07 01:57:34;;;;;;;25.95;13.20;;;;;;;13.12;73.35;101252.53;5030235;28;20052;-63
2021/09/07 01:59:59;;;;;;;27.98;15.18;;;;;;;13.07;74.19;101252.94;5028751;28;20060;-63
2021/09/07 02:02:24;;;;;;;31.40;15.20;;;;;;;13.01;74.47;101255.28;5028660;28;20512;-66
2021/09/07 02:04:50;;;;;;;29.27;15.55;;;;;;;12.95;74.49;101256.63;5030012;28;20543;-66
2021/09/07 02:07:16;;;;;;;27.70;14.60;;;;;;;12.90;74.75;101247.22;5029955;28;20061;-66
2021/09/07 02:09:41;;;;;;;35.97;14.68;;;;;;;12.84;74.69;101242.34;5029860;28;20046;-66
2021/09/07 02:12:07;;;;;;;25.33;13.27;;;;;;;12.85;75.25;101252.97;5021407;28;20033;-67
2021/09/07 02:14:33;;;;;;;25.65;13.02;;;;;;;12.80;75.73;101254.34;5010202;28;20026;-64
2021/09/07 02:16:58;;;;;;;28.55;13.15;;;;;;;12.76;76.53;101244.78;5008877;28;20121;-63
2021/09/07 02:19:24;;;;;;;25.02;13.07;;;;;;;12.69;76.91;101238.19;5010020;28;20060;-63
2021/09/07 02:21:49;;;;;;;23.63;11.60;;;;;;;12.73;77.50;101239.66;5010106;28;20468;-63
2021/09/07 02:24:15;;;;;;;27.38;10.98;;;;;;;12.76;77.77;101245.66;5008683;28;20041;-63
2021/09/07 02:26:41;;;;;;;22.90;11.88;;;;;;;12.76;77.52;101245.66;5012085;28;20095;-64
2021/09/07 02:29:07;;;;;;;19.45;11.35;;;;;;;12.72;77.12;101236.13;5014103;28;20465;-63
2021/09/07 02:31:32;;;;;;;22.17;11.35;;;;;;;12.69;76.48;101236.38;5012863;28;20084;-63
2021/09/07 02:33:58;;;;;;;24.10;12.52;;;;;;;12.75;76.01;101248.47;5014046;28;20058;-63
2021/09/07 02:36:24;;;;;;;18.95;11.38;;;;;;;12.70;76.92;101248.84;5013863;28;20081;-66
2021/09/07 02:38:50;;;;;;;17.23;10.20;;;;;;;12.68;77.38;101248.13;5014128;28;20041;-66
2021/09/07 02:41:16;;;;;;;18.23;10.35;;;;;;;12.70;77.84;101250.66;5014039;28;20056;-66
2021/09/07 02:43:41;;;;;;;23.00;11.10;;;;;;;12.69;78.22;101246.28;5013866;28;20029;-66
2021/09/07 02:46:07;;;;;;;21.35;10.40;;;;;;;12.74;77.85;101252.97;5013880;28;20026;-66
2021/09/07 02:48:32;;;;;;;20.83;11.02;;;;;;;12.71;77.07;101252.41;5013697;28;20029;-67
2021/09/07 02:50:58;;;;;;;22.40;11.55;;;;;;;12.79;76.98;101255.31;5022941;28;20474;-66
2021/09/07 02:53:23;;;;;;;18.15;11.30;;;;;;;12.76;76.54;101250.16;5033195;28;20021;-66
2021/09/07 02:55:48;;;;;;;22.73;11.23;;;;;;;12.78;76.82;101245.53;5024446;28;20029;-66
2021/09/07 02:58:14;;;;;;;18.50;9.75;;;;;;;12.69;77.68;101230.13;5020948;28;20383;-67
2021/09/07 03:00:39;;;;;;;19.15;10.50;;;;;;;12.75;76.76;101245.78;5023622;28;20075;-66
2021/09/07 03:03:05;;;;;;;18.15;10.90;;;;;;;12.74;75.55;101252.97;5020828;28;20052;-63
2021/09/07 03:05:30;;;;;;;23.48;11.95;;;;;;;12.70;75.34;101247.97;5024907;28;20034;-63
2021/09/07 03:07:56;;;;;;;22.25;11.05;;;;;;;12.68;75.79;101248.13;5018998;28;20116;-63
2021/09/07 03:10:21;;;;;;;18.50;10.13;;;;;;;12.69;76.11;101255.22;5023496;28;20041;-64
2021/09/07 03:12:49;;;;;;;17.98;10.50;;;;;;;12.67;76.25;101251.78;5023609;28;20077;-63
2021/09/07 03:15:14;;;;;;;18.95;10.40;;;;;;;12.61;76.43;101241.50;5017264;28;20061;-63
2021/09/07 03:17:40;;;;;;;17.88;10.00;;;;;;;12.57;76.44;101239.19;5023799;28;20065;-64
2021/09/07 03:20:06;;;;;;;19.08;11.27;;;;;;;12.54;75.83;101255.63;5025662;28;20029;-63
2021/09/07 03:22:32;;;;;;;23.00;10.85;;;;;;;12.47;76.43;101238.22;5018709;28;20066;-63
2021/09/07 03:24:58;;;;;;;19.42;10.45;;;;;;;12.51;76.67;101245.94;5024462;28;20441;-63
2021/09/07 03:27:23;;;;;;;17.60;10.35;;;;;;;12.49;77.19;101233.59;5017248;28;20038;-63
2021/09/07 03:29:49;;;;;;;23.15;10.60;;;;;;;12.51;77.84;101242.41;5026456;28;20052;-63
2021/09/07 03:32:14;;;;;;;17.42;9.48;;;;;;;12.49;78.84;101242.53;5014199;28;20493;-63
2021/09/07 03:34:40;;;;;;;23.00;11.18;;;;;;;12.50;78.21;101237.97;5013168;28;20729;-63
2021/09/07 03:37:05;;;;;;;17.15;10.27;;;;;;;12.47;78.38;101235.53;5012564;28;20111;-63
2021/09/07 03:39:31;;;;;;;17.30;9.98;;;;;;;12.52;79.02;101242.28;5014916;28;20033;-63
2021/09/07 03:41:56;;;;;;;17.75;9.45;;;;;;;12.53;78.12;101243.13;5018545;28;20022;-63
2021/09/07 03:44:22;;;;;;;17.73;10.30;;;;;;;12.51;77.21;101247.78;5025442;28;20030;-63
2021/09/07 03:46:48;;;;;;;22.30;11.43;;;;;;;12.46;76.24;101240.09;5013709;28;20022;-63
2021/09/07 03:49:13;;;;;;;21.10;11.57;;;;;;;12.43;75.43;101237.63;5012876;28;20030;-63
2021/09/07 03:51:39;;;;;;;19.10;10.38;;;;;;;12.45;76.32;101251.81;5030967;28;20032;-63
2021/09/07 03:54:04;;;;;;;20.98;10.75;;;;;;;12.42;77.05;101257.47;5032250;28;20052;-63
2021/09/07 03:56:30;;;;;;;19.27;9.88;;;;;;;12.34;76.36;101248.28;5032184;28;20393;-63
2021/09/07 03:58:56;;;;;;;18.70;8.93;;;;;;;12.28;76.58;101255.00;5047359;28;20131;-64
2021/09/07 04:01:22;;;;;;;20.48;9.82;;;;;;;12.14;76.82;101246.31;5031988;28;20033;-63
2021/09/07 04:03:47;;;;;;;20.13;9.60;;;;;;;12.02;78.31;101234.72;5032067;28;20029;-63
2021/09/07 04:06:12;;;;;;;16.27;8.93;;;;;;;12.07;79.25;101253.19;5032355;28;20072;-63
2021/09/07 04:08:38;;;;;;;18.23;10.40;;;;;;;12.06;79.63;101255.00;5032101;28;20029;-63
2021/09/07 04:11:03;;;;;;;20.75;8.68;;;;;;;12.03;80.28;101247.16;5032136;28;20041;-62
2021/09/07 04:13:29;;;;;;;22.38;9.07;;;;;;;11.99;80.26;101251.09;5031914;28;20383;-62
2021/09/07 04:15:54;;;;;;;18.02;8.85;;;;;;;11.92;80.20;101235.56;5047386;28;20076;-63
2021/09/07 04:18:20;;;;;;;22.23;8.93;;;;;;;11.90;80.48;101235.66;5031927;28;20128;-67
2021/09/07 04:20:45;;;;;;;19.02;8.32;;;;;;;11.98;80.68;101249.38;5031842;28;20022;-66
2021/09/07 04:23:11;;;;;;;22.83;8.60;;;;;;;11.98;81.28;101245.81;5032068;28;20041;-66
2021/09/07 04:25:37;;;;;;;17.08;8.10;;;;;;;11.99;82.52;101248.41;5031913;28;20504;-66
2021/09/07 04:28:03;;;;;;;17.70;8.70;;;;;;;12.03;81.83;101243.66;5030476;28;20132;-66
2021/09/07 04:30:29;;;;;;;16.60;8.07;;;;;;;12.07;81.33;101245.09;5031579;28;20472;-66
2021/09/07 04:32:54;;;;;;;20.20;8.88;;;;;;;11.99;81.18;101226.88;5031621;28;20121;-66
2021/09/07 04:35:20;;;;;;;17.50;9.82;;;;;;;12.14;80.74;101252.56;5031594;28;20025;-67
2021/09/07 04:37:45;;;;;;;18.98;8.48;;;;;;;12.15;81.26;101248.91;5031756;28;20025;-67
2021/09/07 04:40:11;;;;;;;18.88;8.18;;;;;;;12.22;81.05;101260.03;5030231;28;20026;-63
2021/09/07 04:42:38;;;;;;;16.27;8.75;;;;;;;12.21;81.35;101247.53;5031420;28;20164;-63
2021/09/07 04:45:04;;;;;;;23.50;8.98;;;;;;;12.19;81.89;101236.91;5031492;28;20040;-63
2021/09/07 04:47:29;;;;;;;18.20;8.57;;;;;;;12.23;81.09;101237.53;5031402;28;20025;-63
2021/09/07 04:49:55;;;;;;;24.13;9.50;;;;;;;12.36;80.86;101257.97;5030738;28;20075;-63
2021/09/07 04:52:20;;;;;;;21.23;8.65;;;;;;;12.31;81.00;101246.69;5029841;28;20028;-62
2021/09/07 04:54:46;;;;;;;27.13;9.75;;;;;;;12.42;80.92;101257.47;5031374;28;20103;-63
2021/09/07 04:57:11;;;;;;;17.83;9.15;;;;;;;12.47;80.74;101263.31;5031313;28;20030;-63
2021/09/07 04:59:38;;;;;;;16.80;8.15;;;;;;;12.51;79.54;101255.88;5031031;28;20022;-63
2021/09/07 05:02:04;;;;;;;27.63;9.35;;;;;;;12.49;80.08;101257.81;5031213;28;20112;-64
2021/09/07 05:04:29;;;;;;;42.10;9.93;;;;;;;12.53;79.99;101264.66;5031046;28;20116;-63
2021/09/07 05:06:55;;;;;;;36.40;8.93;;;;;;;12.57;79.79;101263.41;5028186;28;20077;-63
2021/09/07 05:09:20;;;;;;;46.78;10.57;;;;;;;12.64;80.29;101267.34;5017009;28;20037;-63
2021/09/07 05:11:45;;;;;;;54.45;11.70;;;;;;;12.69;79.86;101265.13;5019927;28;20763;-62
2021/09/07 05:14:11;;;;;;;51.85;12.27;;;;;;;12.76;79.67;101272.56;5016266;28;20469;-63
2021/09/07 05:16:36;;;;;;;25.50;9.85;;;;;;;12.71;79.99;101264.00;5011071;28;20033;-63
2021/09/07 05:19:02;;;;;;;63.90;12.40;;;;;;;12.75;80.23;101261.94;5011317;28;20080;-64
2021/09/07 05:21:29;;;;;;;82.38;14.48;;;;;;;12.90;80.08;101274.16;5010919;28;20045;-64
2021/09/07 05:23:54;;;;;;;48.95;11.60;;;;;;;12.98;80.42;101275.22;5009689;28;20041;-64
2021/09/07 05:26:20;;;;;;;30.80;11.85;;;;;;;13.09;80.15;101282.44;5010929;28;20479;-64
2021/09/07 05:28:45;;;;;;;23.98;9.95;;;;;;;13.16;79.86;101279.09;5011057;28;20037;-64
2021/09/07 05:31:11;;;;;;;29.05;9.98;;;;;;;13.24;80.05;101278.47;5010748;28;20101;-64
2021/09/07 05:33:36;;;;;;;41.78;11.65;;;;;;;13.31;79.46;101285.03;5010896;28;20026;-64
2021/09/07 05:36:02;;;;;;;38.67;11.00;;;;;;;13.41;79.53;101278.75;5010885;28;20036;-64
2021/09/07 05:38:28;;;;;;;33.53;11.15;;;;;;;13.50;79.04;101283.38;5010616;28;20108;-65
2021/09/07 05:40:53;;;;;;;28.08;10.30;;;;;;;13.62;78.40;101289.56;5010748;28;20505;-64
2021/09/07 05:43:19;;;;;;;29.55;11.23;;;;;;;13.76;77.97;101288.41;5010515;28;20022;-64
2021/09/07 05:45:45;;;;;;;46.00;10.77;;;;;;;13.91;78.56;101296.03;5010398;28;20053;-64
2021/09/07 05:48:10;;;;;;;28.90;10.10;;;;;;;14.04;78.12;101291.28;5010747;28;20056;-64
2021/09/07 05:50:35;;;;;;;32.42;9.60;;;;;;;14.19;77.15;101289.09;5010572;28;20033;-64
2021/09/07 05:53:01;;;;;;;32.03;10.00;;;;;;;14.28;76.39;101281.06;5009246;28;20018;-65
2021/09/07 05:55:27;;;;;;;25.58;9.38;;;;;;;14.44;75.71;101289.50;5009168;28;20420;-64
2021/09/07 05:57:54;;;;;;;25.50;8.80;;;;;;;14.55;74.99;101288.56;5010516;28;20061;-65
2021/09/07 06:00:19;;;;;;;31.08;9.65;;;;;;;14.68;75.00;101290.06;5010208;28;20026;-64
2021/09/07 06:02:45;;;;;;;32.80;9.43;;;;;;;14.88;74.83;101290.94;5009020;28;20034;-64
2021/09/07 06:05:12;;;;;;;33.22;10.55;;;;;;;15.08;73.63;101296.25;5017914;28;20030;-65
2021/09/07 06:07:38;;;;;;;26.15;9.80;;;;;;;15.26;73.05;101291.84;5030169;28;20112;-64
2021/09/07 06:10:05;;;;;;;35.25;9.23;;;;;;;15.40;72.86;101283.38;5029829;28;20103;-65
2021/09/07 06:12:31;;;;;;;28.95;9.75;;;;;;;15.58;72.22;101295.16;5029855;28;20022;-64
2021/09/07 06:14:57;;;;;;;27.88;9.45;;;;;;;15.75;69.96;101291.75;5029980;28;20036;-64
2021/09/07 06:17:22;;;;;;;20.75;9.90;;;;;;;15.96;69.69;101288.84;5029898;28;20033;-64
2021/09/07 06:19:48;;;;;;;23.80;9.52;;;;;;;16.19;68.24;101292.97;5030105;28;20017;-64
2021/09/07 06:22:13;;;;;;;22.30;10.18;;;;;;;16.47;65.71;101294.72;5029926;28;20154;-65
2021/09/07 06:24:39;;;;;;;19.00;8.88;;;;;;;16.78;64.43;101293.44;5029922;28;20068;-67
2021/09/07 06:27:04;;;;;;;18.52;9.30;;;;;;;17.01;62.72;101285.75;5029977;28;20056;-67
2021/09/07 06:29:30;;;;;;;20.63;9.35;;;;;;;17.38;62.16;101298.19;5029698;28;20037;-68
2021/09/07 06:31:55;;;;;;;15.10;8.77;;;;;;;17.62;61.05;101294.88;5025491;28;20041;-67
2021/09/07 06:34:24;;;;;;;21.23;9.20;;;;;;;17.71;59.86;101294.78;5026571;28;20085;-68
2021/09/07 06:36:51;;;;;;;19.77;9.43;;;;;;;17.93;59.19;101298.88;5044805;28;20521;-67
2021/09/07 06:39:16;;;;;;;17.80;9.02;;;;;;;18.08;58.35;101309.00;5018832;28;20410;-67
2021/09/07 06:41:42;;;;;;;15.55;8.93;;;;;;;18.12;58.20;101292.41;5010012;28;20131;-68
2021/09/07 06:44:07;;;;;;;16.88;8.98;;;;;;;18.32;58.09;101300.19;5009890;28;20037;-68
2021/09/07 06:46:32;;;;;;;15.05;8.05;;;;;;;18.55;57.38;101295.94;5009856;28;20030;-68
2021/09/07 06:48:58;;;;;;;15.88;7.90;;;;;;;18.80;56.16;101299.59;5010052;28;20459;-68
2021/09/07 06:51:23;;;;;;;11.82;8.00;;;;;;;19.01;54.77;101302.72;5010004;28;20494;-68
2021/09/07 06:53:49;;;;;;;14.02;8.07;;;;;;;19.27;53.89;101298.94;5010128;28;20045;-68
2021/09/07 06:56:14;;;;;;;15.68;7.28;;;;;;;19.51;53.65;101290.81;5009949;28;20045;-68
2021/09/07 06:58:40;;;;;;;16.55;8.68;;;;;;;19.77;52.58;101291.50;5009735;28;20038;-68
2021/09/07 07:01:05;;;;;;;16.75;8.15;;;;;;;19.95;52.06;101300.34;5024622;28;20108;-68
2021/09/07 07:03:32;;;;;;;16.15;8.15;;;;;;;20.06;51.47;101302.72;5029230;28;20116;-68
2021/09/07 07:05:57;;;;;;;13.93;7.95;;;;;;;20.13;51.21;101295.59;5029363;28;20041;-68
2021/09/07 07:08:23;;;;;;;18.52;8.00;;;;;;;20.31;50.99;101294.56;5029485;28;20618;-68
2021/09/07 07:10:48;;;;;;;13.63;7.93;;;;;;;20.50;50.81;101299.63;5017391;28;20054;-68
2021/09/07 07:13:13;;;;;;;12.25;7.35;;;;;;;20.72;50.40;101310.63;5010773;28;20029;-68
2021/09/07 07:15:39;;;;;;;13.10;7.55;;;;;;;20.95;50.05;101307.97;5013540;28;20632;-68
2021/09/07 07:18:04;;;;;;;13.30;8.57;;;;;;;21.11;49.51;101292.41;5028124;28;20037;-68
2021/09/07 07:20:31;;;;;;;16.77;8.82;;;;;;;21.36;48.94;101304.88;5010437;28;20033;-68
2021/09/07 07:22:56;;;;;;;13.73;8.00;;;;;;;21.56;48.08;101310.69;5012490;28;20494;-65
2021/09/07 07:25:21;;;;;;;11.95;7.85;;;;;;;21.66;47.99;101303.13;5013228;28;20033;-65
2021/09/07 07:27:48;;;;;;;17.75;8.70;;;;;;;21.89;47.59;101306.72;5013084;28;20057;-65
2021/09/07 07:30:13;;;;;;;11.75;7.75;;;;;;;22.07;47.17;101309.97;5011943;28;20112;-66
2021/09/07 07:32:39;;;;;;;11.88;8.52;;;;;;;22.21;46.56;101301.81;5012963;28;20022;-65
2021/09/07 07:35:06;;;;;;;12.68;7.68;;;;;;;22.37;46.46;101310.91;5013163;28;20119;-65
2021/09/07 07:37:31;;;;;;;21.55;8.32;;;;;;;22.50;46.08;101306.50;5012895;28;20478;-66
2021/09/07 07:39:57;;;;;;;16.92;8.15;;;;;;;22.64;45.94;101311.16;5012927;28;20029;-65
2021/09/07 07:42:22;;;;;;;14.07;8.30;;;;;;;22.79;45.36;101302.94;5012575;28;20451;-66
2021/09/07 07:44:48;;;;;;;11.02;7.45;;;;;;;22.98;45.03;101305.06;5012979;28;20026;-65
2021/09/07 07:47:14;;;;;;;15.90;7.97;;;;;;;23.15;44.47;101306.56;5012825;28;20032;-66
2021/09/07 07:49:40;;;;;;;16.73;7.45;;;;;;;23.42;44.66;101314.06;5012735;28;20038;-66
2021/09/07 07:52:05;;;;;;;14.15;8.18;;;;;;;23.64;44.04;101313.06;5012637;28;20136;-65
2021/09/07 07:54:31;;;;;;;16.65;8.02;;;;;;;23.89;43.51;101312.44;5012542;28;20026;-66
2021/09/07 07:56:56;;;;;;;15.63;8.50;;;;;;;24.11;43.21;101305.06;5012552;28;20034;-66
2021/09/07 07:59:22;;;;;;;21.08;8.63;;;;;;;24.45;42.37;101305.97;5027589;28;20038;-65
2021/09/07 08:01:47;;;;;;;12.02;7.43;;;;;;;24.87;41.80;101306.91;5027494;28;20026;-65
2021/09/07 08:04:13;;;;;;;19.70;7.95;;;;;;;25.36;40.66;101296.56;5012535;28;20495;-66
2021/09/07 08:06:40;;;;;;;13.23;7.45;;;;;;;26.05;39.57;101307.06;5012388;28;20025;-65
2021/09/07 08:09:06;;;;;;;14.10;7.22;;;;;;;26.84;38.11;101288.59;5012155;28;20045;-66
2021/09/07 08:11:31;;;;;;;11.55;6.85;;;;;;;27.80;36.48;101285.56;5012181;28;20026;-65
2021/09/07 08:13:56;;;;;;;19.85;7.60;;;;;;;28.97;34.68;101283.59;5012395;28;20067;-64
2021/09/07 08:16:22;;;;;;;17.67;7.22;;;;;;;29.78;32.62;101287.63;5010827;28;20438;-63
2021/09/07 08:18:48;;;;;;;12.88;6.82;;;;;;;30.59;31.80;101277.50;5012314;28;20030;-63
2021/09/07 08:21:13;;;;;;;17.77;6.78;;;;;;;31.50;30.46;101271.97;5012049;28;20030;-65
2021/09/07 08:23:39;;;;;;;11.20;6.85;;;;;;;32.27;29.07;101268.38;5011111;28;20528;-65
2021/09/07 08:26:04;;;;;;;13.25;6.63;;;;;;;33.08;28.09;101276.00;5011880;28;20053;-68
2021/09/07 08:28:30;;;;;;;13.48;6.57;;;;;;;33.61;27.26;101275.22;5012563;28;20398;-68
2021/09/07 08:30:55;;;;;;;16.95;6.28;;;;;;;34.11;26.76;101275.75;5012364;28;20037;-68
2021/09/07 08:33:21;;;;;;;12.70;6.57;;;;;;;34.63;25.99;101269.16;5012344;28;20113;-65
2021/09/07 08:35:47;;;;;;;12.43;6.25;;;;;;;35.23;25.34;101268.66;5012681;28;20091;-65
2021/09/07 08:38:12;;;;;;;12.40;6.07;;;;;;;35.70;24.95;101266.56;5011755;28;20160;-65
2021/09/07 08:40:39;;;;;;;14.02;6.13;;;;;;;36.08;24.53;101263.25;5012281;28;20029;-65
2021/09/07 08:43:06;;;;;;;14.13;5.60;;;;;;;36.38;24.38;101268.88;5012162;28;20120;-65
2021/09/07 08:45:32;;;;;;;12.23;5.70;;;;;;;36.30;23.54;101266.63;5012021;28;20029;-65
2021/09/07 08:47:59;;;;;;;6.45;5.22;;;;;;;36.14;23.89;101264.91;5012100;28;20495;-66
2021/09/07 08:50:25;;;;;;;14.10;6.65;;;;;;;35.81;24.32;101267.44;5012025;28;20030;-65
2021/09/07 08:52:58;;;;;;;9.00;5.40;;;;;;;35.40;24.66;101272.06;5012112;28;20033;-65
2021/09/07 08:55:28;;;;;;;12.18;6.10;;;;;;;34.76;25.13;101262.28;5011934;28;20029;-65
2021/09/07 08:57:54;;;;;;;13.35;5.60;;;;;;;34.29;25.34;101273.38;5011986;28;20029;-65
2021/09/07 09:00:27;;;;;;;9.50;5.72;;;;;;;33.62;26.75;101272.19;5011955;28;20024;-65
2021/09/07 09:02:53;;;;;;;8.65;5.78;;;;;;;32.98;27.14;101266.69;5011569;28;20029;-68
2021/09/07 09:05:30;;;;;;;11.50;5.50;;;;;;;32.45;27.74;101270.09;5011732;28;20487;-68
2021/09/07 09:07:56;;;;;;;7.72;5.65;;;;;;;31.90;28.56;101260.81;5010329;28;20065;-68
2021/09/07 09:10:22;;;;;;;8.45;5.53;;;;;;;31.58;28.82;101273.53;5026828;28;20147;-69
2021/09/07 09:12:48;;;;;;;7.00;5.07;;;;;;;31.30;28.94;101268.81;5011835;28;20037;-68
2021/09/07 09:15:15;;;;;;;10.40;5.55;;;;;;;30.97;29.60;101274.22;5011773;28;20037;-68
2021/09/07 09:17:41;;;;;;;7.57;5.45;;;;;;;30.63;29.43;101275.09;5011450;28;20152;-69
2021/09/07 09:20:18;;;;;;;7.78;5.00;;;;;;;30.40;29.35;101275.94;5011483;28;20500;-69
2021/09/07 09:22:57;;;;;;;8.98;4.90;;;;;;;30.10;30.21;101280.72;5010208;28;20175;-69
2021/09/07 09:25:24;;;;;;;7.68;5.10;;;;;;;29.94;30.80;101283.31;5011646;28;20041;-69
2021/09/07 09:27:56;;;;;;;9.80;5.65;;;;;;;29.78;31.04;101282.09;5011485;28;20042;-69
2021/09/07 09:30:30;;;;;;;9.23;5.68;;;;;;;29.56;30.97;101269.84;5011333;28;20091;-69
2021/09/07 09:33:00;;;;;;;6.07;5.13;;;;;;;29.49;31.28;101276.53;5011198;28;20033;-68
2021/09/07 09:35:26;;;;;;;8.38;5.25;;;;;;;29.35;31.13;101278.69;5010933;28;20067;-69
2021/09/07 09:38:00;;;;;;;9.93;5.85;;;;;;;29.17;31.71;101272.34;5011337;28;20108;-69
2021/09/07 09:40:27;;;;;;;10.10;5.85;;;;;;;28.97;31.97;101255.97;5011041;28;20430;-69
2021/09/07 09:42:56;;;;;;;10.73;5.40;;;;;;;28.93;31.98;101273.25;5011100;28;20489;-69
2021/09/07 09:45:31;;;;;;;11.48;6.00;;;;;;;28.84;32.32;101269.94;5011075;28;20501;-69
2021/09/07 09:47:57;;;;;;;7.40;5.95;;;;;;;28.72;32.24;101268.19;5015251;28;20055;-69
2021/09/07 09:50:26;;;;;;;6.05;5.18;;;;;;;28.52;32.26;101249.94;5042482;28;20460;-70
2021/09/07 09:52:52;;;;;;;10.30;5.55;;;;;;;28.58;32.45;101267.50;5009688;28;20030;-70
2021/09/07 09:55:18;;;;;;;10.68;5.88;;;;;;;28.46;32.21;101250.84;5010906;28;20037;-69
2021/09/07 09:57:44;;;;;;;8.48;5.75;;;;;;;28.44;32.50;101257.63;5010763;28;20053;-69
2021/09/07 10:00:15;;;;;;;7.55;5.40;;;;;;;28.38;32.64;101253.84;5010866;28;20029;-69
2021/09/07 10:02:41;;;;;;;7.82;5.63;;;;;;;28.38;32.46;101267.66;5010646;28;20030;-70
2021/09/07 10:05:09;;;;;;;8.68;5.57;;;;;;;28.33;32.89;101259.22;5013537;28;20053;-70
2021/09/07 10:07:34;;;;;;;7.90;5.40;;;;;;;28.34;32.88;101260.09;5010720;28;20534;-69
2021/09/07 10:10:00;;;;;;;7.25;5.68;;;;;;;28.31;33.09;101257.78;5014197;28;20052;-69
2021/09/07 10:12:41;;;;;;;11.73;5.85;;;;;;;28.25;33.02;101255.91;5030347;28;20068;-69
2021/09/07 10:17:55;;;;;;;7.32;5.55;;;;;;;28.20;33.16;101250.22;5030908;28;20112;-69
2021/09/07 10:23:57;;;;;;;6.95;5.80;;;;;;;28.13;32.90;101242.03;5001855;28;20069;-70
2021/09/07 10:26:38;;;;;;;9.95;5.50;;;;;;;28.06;32.68;101241.25;5010249;28;20471;-69
2021/09/07 10:29:19;;;;;;;8.05;5.63;;;;;;;27.99;32.95;101223.06;5010625;28;20072;-70
2021/09/07 10:31:49;;;;;;;7.05;5.22;;;;;;;28.01;33.05;101238.31;5010480;28;20033;-69
2021/09/07 10:34:19;;;;;;;10.25;5.03;;;;;;;27.99;33.20;101240.44;5019898;28;20129;-69
2021/09/07 10:37:06;;;;;;;6.63;5.43;;;;;;;27.97;32.47;101215.00;5045422;28;20037;-69
2021/09/07 10:39:35;;;;;;;11.00;5.40;;;;;;;28.05;32.18;101228.50;5030138;28;20026;-69
2021/09/07 10:42:03;;;;;;;8.02;5.10;;;;;;;28.07;31.97;101231.88;5030150;28;20562;-69
2021/09/07 10:44:33;;;;;;;7.50;5.38;;;;;;;28.09;32.52;101231.66;5028712;28;20064;-69
2021/09/07 10:47:10;;;;;;;5.70;5.10;;;;;;;28.09;32.20;101226.97;5030732;28;20033;-69
2021/09/07 10:50:02;;;;;;;7.55;4.97;;;;;;;28.14;32.06;101232.66;5032722;28;20051;-70
2021/09/07 10:52:28;;;;;;;9.95;5.80;;;;;;;28.17;31.57;101225.84;5014370;28;20038;-69
2021/09/07 10:54:53;;;;;;;7.50;5.13;;;;;;;28.17;31.17;101228.59;5014335;28;20071;-69
2021/09/07 10:57:34;;;;;;;8.07;5.20;;;;;;;28.13;31.24;101225.47;5014230;28;20026;-69
2021/09/07 11:00:01;;;;;;;8.07;4.85;;;;;;;28.06;30.73;101230.22;5014145;28;20034;-70
2021/09/07 11:02:37;;;;;;;6.05;4.80;;;;;;;28.01;31.13;101223.66;5014171;28;20125;-70
2021/09/07 11:05:04;;;;;;;5.43;4.88;;;;;;;27.87;31.56;101219.34;5029309;28;20040;-70
2021/09/07 11:07:48;;;;;;;7.03;5.50;;;;;;;27.81;32.13;101225.72;5014274;28;20035;-69
2021/09/07 11:10:16;;;;;;;6.70;5.40;;;;;;;27.72;32.42;101219.63;5013742;28;20061;-69
2021/09/07 11:13:18;;;;;;;8.23;5.55;;;;;;;27.59;32.80;101208.72;5013549;28;20033;-70
2021/09/07 11:15:44;;;;;;;6.18;5.38;;;;;;;27.58;32.75;101219.97;5024999;28;20409;-70
2021/09/07 11:18:12;;;;;;;8.20;5.25;;;;;;;27.51;32.89;101224.69;5033050;28;20076;-70